Time;durP1;ratioP1;P1;durP2;ratioP2;P2;SDS_P1;SDS_P2;PMS_P1;PMS_P2;Temp;Humidity;BMP_temperature;BMP_pressure;BME280_temperature;BME280_humidity;BME280_pressure;Samples;Min_cycle;Max_cycle;Signal;HPM_P1;HPM_P2
2020/12/02 00:01:51;;;;;;;25.00;14.70;;;5.50;99.90;;;;;;5058157;28;20036;-71
2020/12/02 00:04:20;;;;;;;23.17;14.50;;;5.50;99.90;;;;;;5056288;28;20025;-68
2020/12/02 00:06:48;;;;;;;22.63;13.18;;;5.50;99.90;;;;;;5057844;28;20017;-69
2020/12/02 00:09:20;;;;;;;24.23;14.73;;;5.40;99.90;;;;;;5058250;28;20027;-67
2020/12/02 00:11:47;;;;;;;24.65;15.18;;;5.40;99.90;;;;;;5053679;28;20083;-70
2020/12/02 00:14:24;;;;;;;26.42;14.73;;;5.40;99.90;;;;;;5066194;28;20047;-72
2020/12/02 00:16:50;;;;;;;22.17;13.65;;;5.40;99.90;;;;;;5057242;28;20500;-68
2020/12/02 00:19:17;;;;;;;22.98;14.13;;;5.40;99.90;;;;;;5059190;28;20025;-71
2020/12/02 00:22:11;;;;;;;24.65;13.38;;;5.40;99.90;;;;;;5060333;28;20036;-72
2020/12/02 00:24:55;;;;;;;22.15;13.65;;;5.40;99.90;;;;;;5061889;28;20067;-71
2020/12/02 00:27:26;;;;;;;21.10;13.43;;;5.30;99.90;;;;;;5055950;28;20484;-70
2020/12/02 00:29:52;;;;;;;21.88;12.95;;;5.30;99.90;;;;;;5058845;28;20479;-72
2020/12/02 00:32:35;;;;;;;22.67;12.70;;;5.30;99.90;;;;;;5061355;28;20036;-71
2020/12/02 00:35:01;;;;;;;23.85;13.27;;;5.20;99.90;;;;;;5056975;28;20021;-68
2020/12/02 00:37:28;;;;;;;20.40;12.25;;;5.30;99.90;;;;;;5055977;28;20044;-68
2020/12/02 00:39:55;;;;;;;21.20;12.93;;;5.30;99.90;;;;;;5058121;28;20025;-72
2020/12/02 00:42:22;;;;;;;20.75;11.73;;;5.30;99.90;;;;;;5053888;28;20421;-68
2020/12/02 00:44:49;;;;;;;20.13;11.38;;;5.30;99.90;;;;;;5057190;28;20041;-72
2020/12/02 00:47:20;;;;;;;22.48;12.77;;;5.20;99.90;;;;;;5056581;28;20029;-71
2020/12/02 00:49:50;;;;;;;21.85;13.07;;;5.20;99.90;;;;;;5060936;28;20029;-68
2020/12/02 00:52:16;;;;;;;20.58;12.45;;;5.30;99.90;;;;;;5054764;28;20120;-71
2020/12/02 00:54:43;;;;;;;21.33;11.73;;;5.40;99.90;;;;;;5056966;28;20024;-68
2020/12/02 00:57:10;;;;;;;25.63;14.32;;;5.40;99.90;;;;;;5058821;28;20044;-71
2020/12/02 00:59:38;;;;;;;23.65;13.20;;;5.40;99.90;;;;;;5056473;28;20035;-69
2020/12/02 01:02:33;;;;;;;23.20;13.32;;;5.30;99.90;;;;;;5055556;28;20013;-67
2020/12/02 01:04:59;;;;;;;21.02;12.20;;;5.30;99.90;;;;;;5056556;28;20033;-67
2020/12/02 01:07:27;;;;;;;22.40;12.65;;;5.30;99.90;;;;;;5059861;28;20025;-67
2020/12/02 01:09:53;;;;;;;21.90;13.13;;;5.30;99.90;;;;;;5057372;28;20384;-71
2020/12/02 01:12:20;;;;;;;24.15;12.70;;;5.20;99.90;;;;;;5056661;28;20039;-71
2020/12/02 01:14:47;;;;;;;23.45;13.43;;;5.20;99.90;;;;;;5056855;28;20036;-71
2020/12/02 01:17:16;;;;;;;23.65;13.88;;;5.20;99.90;;;;;;5055069;28;20071;-70
2020/12/02 01:19:42;;;;;;;24.17;13.55;;;5.20;99.90;;;;;;5058080;28;20433;-71
2020/12/02 01:22:16;;;;;;;21.98;13.23;;;5.20;99.90;;;;;;5053825;28;20040;-67
2020/12/02 01:25:20;;;;;;;23.20;13.15;;;5.20;99.90;;;;;;5057542;28;20103;-68
2020/12/02 01:28:10;;;;;;;24.50;14.27;;;5.20;99.90;;;;;;5056268;28;20083;-68
2020/12/02 01:30:39;;;;;;;22.88;14.50;;;5.20;99.90;;;;;;5055389;28;20021;-71
2020/12/02 01:33:04;;;;;;;21.17;12.95;;;5.10;99.90;;;;;;5053699;28;20025;-68
2020/12/02 01:35:31;;;;;;;22.08;13.88;;;5.10;99.90;;;;;;5055906;28;20032;-71
2020/12/02 01:38:02;;;;;;;24.95;13.27;;;5.10;99.90;;;;;;5057838;28;20068;-71
2020/12/02 01:40:31;;;;;;;24.50;14.40;;;5.10;99.90;;;;;;5060568;28;20052;-68
2020/12/02 01:43:02;;;;;;;25.13;14.33;;;5.00;99.90;;;;;;5057348;28;20071;-71
2020/12/02 01:45:32;;;;;;;25.20;14.48;;;5.00;99.90;;;;;;5063298;28;20433;-70
2020/12/02 01:48:35;;;;;;;26.80;14.75;;;5.00;99.90;;;;;;5063505;28;20047;-68
2020/12/02 01:51:21;;;;;;;24.30;14.57;;;5.00;99.90;;;;;;5058775;28;20027;-71
2020/12/02 01:53:49;;;;;;;24.52;14.40;;;5.00;99.90;;;;;;5057982;28;20051;-68
2020/12/02 01:56:30;;;;;;;23.85;14.15;;;5.00;99.90;;;;;;5057190;28;20401;-71
2020/12/02 01:59:13;;;;;;;23.27;13.95;;;5.00;99.90;;;;;;5062920;28;20043;-70
2020/12/02 02:02:14;;;;;;;23.10;14.70;;;4.90;99.90;;;;;;5060948;28;20822;-71
2020/12/02 02:05:09;;;;;;;25.60;14.65;;;4.90;99.90;;;;;;5056210;28;20025;-71
2020/12/02 02:07:37;;;;;;;25.90;16.08;;;4.90;99.90;;;;;;5058431;28;20029;-71
2020/12/02 02:10:35;;;;;;;28.83;16.17;;;4.90;99.90;;;;;;5057162;28;20024;-68
2020/12/02 02:13:35;;;;;;;24.33;15.10;;;4.90;99.90;;;;;;5054742;28;20056;-70
2020/12/02 02:16:16;;;;;;;24.35;14.10;;;4.90;99.90;;;;;;5060349;28;20028;-67
2020/12/02 02:18:42;;;;;;;24.77;15.13;;;4.80;99.90;;;;;;5062558;28;20021;-68
2020/12/02 02:21:16;;;;;;;25.27;14.38;;;4.90;99.90;;;;;;5056045;28;20100;-68
2020/12/02 02:23:42;;;;;;;24.65;15.98;;;4.80;99.90;;;;;;5057791;28;20044;-71
2020/12/02 02:26:14;;;;;;;25.15;15.80;;;4.80;99.90;;;;;;5057077;28;20025;-71
2020/12/02 02:28:44;;;;;;;25.70;14.95;;;4.90;99.90;;;;;;5060708;28;20051;-71
2020/12/02 02:31:17;;;;;;;25.30;14.88;;;4.90;99.90;;;;;;5060750;28;20024;-70
2020/12/02 02:33:45;;;;;;;29.50;16.83;;;4.90;99.90;;;;;;5057410;28;20053;-67
2020/12/02 02:36:12;;;;;;;25.02;15.20;;;4.90;99.90;;;;;;5060846;28;20108;-72
2020/12/02 02:38:39;;;;;;;27.70;16.05;;;4.80;99.90;;;;;;5055883;28;20052;-68
2020/12/02 02:41:05;;;;;;;27.80;15.98;;;4.90;99.90;;;;;;5057062;28;20013;-68
2020/12/02 02:43:31;;;;;;;28.92;16.73;;;4.90;99.90;;;;;;5055615;28;20357;-67
2020/12/02 02:45:57;;;;;;;25.75;15.07;;;4.90;99.90;;;;;;5059785;28;20373;-68
2020/12/02 02:48:23;;;;;;;26.38;15.88;;;4.80;99.90;;;;;;5059975;28;20039;-71
2020/12/02 02:50:49;;;;;;;26.70;16.60;;;4.80;99.90;;;;;;5061860;28;20060;-69
2020/12/02 02:53:18;;;;;;;27.08;17.02;;;4.80;99.90;;;;;;5059426;28;20021;-70
2020/12/02 02:55:44;;;;;;;24.15;14.93;;;4.80;99.90;;;;;;5057839;28;20029;-70
2020/12/02 02:58:09;;;;;;;26.85;16.10;;;4.80;99.90;;;;;;5056157;28;20028;-70
2020/12/02 03:00:36;;;;;;;27.95;15.95;;;4.80;99.90;;;;;;5056979;28;20051;-71
2020/12/02 03:03:02;;;;;;;26.85;17.48;;;4.80;99.90;;;;;;5059095;28;20035;-68
2020/12/02 03:05:28;;;;;;;28.60;17.20;;;4.80;99.90;;;;;;5058488;28;20033;-71
2020/12/02 03:08:03;;;;;;;32.85;18.05;;;4.80;99.90;;;;;;5061091;28;20021;-67
2020/12/02 03:10:33;;;;;;;29.10;16.98;;;4.90;99.90;;;;;;5058662;28;20431;-67
2020/12/02 03:13:03;;;;;;;28.05;18.10;;;4.80;99.90;;;;;;5059133;28;20044;-69
2020/12/02 03:15:30;;;;;;;29.10;17.60;;;4.80;99.90;;;;;;5057793;28;20104;-70
2020/12/02 03:17:56;;;;;;;32.30;17.45;;;4.80;99.90;;;;;;5056300;28;20025;-68
2020/12/02 03:20:37;;;;;;;28.25;17.15;;;4.70;99.90;;;;;;5061221;28;20086;-71
2020/12/02 03:23:02;;;;;;;27.80;17.02;;;4.80;99.90;;;;;;5061383;28;20044;-70
2020/12/02 03:25:32;;;;;;;30.08;18.15;;;4.80;99.90;;;;;;5062240;28;20057;-71
2020/12/02 03:27:58;;;;;;;30.35;17.38;;;4.80;99.90;;;;;;5059522;28;20100;-71
2020/12/02 03:30:24;;;;;;;32.33;18.08;;;4.70;99.90;;;;;;5056590;28;20045;-68
2020/12/02 03:32:49;;;;;;;27.83;17.27;;;4.70;99.90;;;;;;5054526;28;20053;-66
2020/12/02 03:35:15;;;;;;;30.45;18.00;;;4.70;99.90;;;;;;5056432;28;20048;-68
2020/12/02 03:37:40;;;;;;;28.65;17.02;;;4.70;99.90;;;;;;5057671;28;20525;-67
2020/12/02 03:40:08;;;;;;;28.45;17.73;;;4.70;99.90;;;;;;5060294;28;20044;-72
2020/12/02 03:42:33;;;;;;;31.35;17.83;;;4.70;99.90;;;;;;5057843;28;20077;-67
2020/12/02 03:44:59;;;;;;;31.92;18.75;;;4.70;99.90;;;;;;5059838;28;20025;-67
2020/12/02 03:47:24;;;;;;;32.58;18.25;;;4.60;99.90;;;;;;5055466;28;20100;-68
2020/12/02 03:49:50;;;;;;;31.25;18.35;;;4.60;99.90;;;;;;5055417;28;20021;-71
2020/12/02 03:52:16;;;;;;;31.13;18.63;;;4.60;99.90;;;;;;5055639;28;20041;-68
2020/12/02 03:54:41;;;;;;;31.65;19.00;;;4.60;99.90;;;;;;5057037;28;20025;-67
2020/12/02 03:57:07;;;;;;;33.42;19.70;;;4.60;99.90;;;;;;5061613;28;20086;-71
2020/12/02 03:59:32;;;;;;;34.20;19.48;;;4.50;99.90;;;;;;5057970;28;20346;-67
2020/12/02 04:01:58;;;;;;;32.10;19.83;;;4.50;99.90;;;;;;5058073;28;20048;-68
2020/12/02 04:04:24;;;;;;;31.98;19.98;;;4.50;99.90;;;;;;5053150;28;20027;-71
2020/12/02 04:06:51;;;;;;;32.00;20.33;;;4.60;99.90;;;;;;5057853;28;20053;-71
2020/12/02 04:09:16;;;;;;;29.90;18.92;;;4.50;99.90;;;;;;5055581;28;20033;-68
2020/12/02 04:11:43;;;;;;;33.15;19.45;;;4.50;99.90;;;;;;5055979;28;20051;-67
2020/12/02 04:14:10;;;;;;;31.02;18.98;;;4.60;99.90;;;;;;5058314;28;20033;-71
2020/12/02 04:16:36;;;;;;;30.60;18.38;;;4.50;99.90;;;;;;5061993;28;20099;-68
2020/12/02 04:19:02;;;;;;;28.65;18.33;;;4.50;99.90;;;;;;5057156;28;20029;-66
2020/12/02 04:21:28;;;;;;;29.70;18.20;;;4.50;99.90;;;;;;5053771;28;20456;-68
2020/12/02 04:23:55;;;;;;;32.42;19.90;;;4.50;99.90;;;;;;5061360;28;20353;-71
2020/12/02 04:26:22;;;;;;;32.03;19.13;;;4.40;99.90;;;;;;5055091;28;20027;-71
2020/12/02 04:28:47;;;;;;;34.10;18.92;;;4.40;99.90;;;;;;5054025;28;20024;-67
2020/12/02 04:31:14;;;;;;;31.95;19.35;;;4.40;99.90;;;;;;5058525;28;20025;-66
2020/12/02 04:33:39;;;;;;;32.38;18.85;;;4.40;99.90;;;;;;5056434;28;20397;-67
2020/12/02 04:36:06;;;;;;;34.47;19.38;;;4.30;99.90;;;;;;5057150;28;20044;-67
2020/12/02 04:38:32;;;;;;;33.15;20.98;;;4.30;99.90;;;;;;5059805;28;20033;-70
2020/12/02 04:40:57;;;;;;;33.63;20.25;;;4.30;99.90;;;;;;5054195;28;20051;-70
2020/12/02 04:43:36;;;;;;;32.15;19.73;;;4.30;99.90;;;;;;5054556;28;20029;-69
2020/12/02 04:46:08;;;;;;;31.70;19.15;;;4.30;99.90;;;;;;5054884;28;20028;-68
2020/12/02 04:48:33;;;;;;;32.63;18.73;;;4.30;99.90;;;;;;5055568;28;20361;-67
2020/12/02 04:51:04;;;;;;;33.10;20.77;;;4.30;99.90;;;;;;5058758;28;20361;-71
2020/12/02 04:53:33;;;;;;;32.67;19.83;;;4.30;99.90;;;;;;5054564;28;20053;-69
2020/12/02 04:55:59;;;;;;;32.13;19.55;;;4.30;99.90;;;;;;5054727;28;20052;-70
2020/12/02 04:58:33;;;;;;;32.88;18.98;;;4.30;99.90;;;;;;5054229;28;20061;-67
2020/12/02 05:01:24;;;;;;;33.67;20.27;;;4.30;99.90;;;;;;5054621;28;20469;-68
2020/12/02 05:04:20;;;;;;;31.50;20.27;;;4.30;99.90;;;;;;5052069;28;20131;-69
2020/12/02 05:07:05;;;;;;;33.38;20.15;;;4.30;99.90;;;;;;5060620;28;20035;-66
2020/12/02 05:09:33;;;;;;;34.22;19.60;;;4.30;99.90;;;;;;5054522;28;20507;-71
2020/12/02 05:12:13;;;;;;;29.55;18.75;;;4.30;99.90;;;;;;5054435;28;20481;-67
2020/12/02 05:14:42;;;;;;;;;;;4.30;99.90;;;;;;5042431;28;20037;-71
2020/12/02 05:17:08;;;;;;;34.55;20.55;;;4.20;99.90;;;;;;5038274;28;19916;-69
2020/12/02 05:19:34;;;;;;;34.63;21.35;;;4.20;99.90;;;;;;5038326;28;20025;-70
2020/12/02 05:22:10;;;;;;;35.50;21.00;;;4.20;99.90;;;;;;5039491;28;20048;-71
2020/12/02 05:24:48;;;;;;;33.13;20.27;;;4.20;99.90;;;;;;5041642;28;20550;-67
2020/12/02 05:27:27;;;;;;;31.35;19.10;;;4.20;99.90;;;;;;5038101;28;20025;-69
2020/12/02 05:30:22;;;;;;;33.80;19.75;;;4.20;99.90;;;;;;5035989;28;20075;-69
2020/12/02 05:33:05;;;;;;;27.58;16.98;;;4.10;99.90;;;;;;5034246;28;20072;-67
2020/12/02 05:35:33;;;;;;;27.27;17.02;;;4.10;99.90;;;;;;5035115;28;20033;-67
2020/12/02 05:37:59;;;;;;;30.92;18.23;;;4.00;99.90;;;;;;5037608;28;20037;-70
2020/12/02 05:40:27;;;;;;;29.45;17.33;;;4.00;99.90;;;;;;5042951;28;20017;-71
2020/12/02 05:42:56;;;;;;;30.52;18.15;;;4.00;99.90;;;;;;5054884;28;20049;-69
2020/12/02 05:45:29;;;;;;;29.05;17.85;;;4.00;99.90;;;;;;5060548;28;20024;-69
2020/12/02 05:47:55;;;;;;;31.00;18.67;;;3.90;99.90;;;;;;5056266;28;20060;-67
2020/12/02 05:50:23;;;;;;;27.83;17.08;;;3.90;99.90;;;;;;5062034;28;20032;-67
2020/12/02 05:52:56;;;;;;;29.98;17.33;;;3.90;99.90;;;;;;5058150;28;20496;-68
2020/12/02 05:55:28;;;;;;;28.98;16.38;;;3.90;99.90;;;;;;5061342;28;20339;-68
2020/12/02 05:58:04;;;;;;;27.90;16.58;;;3.90;99.90;;;;;;5064362;28;20009;-70
2020/12/02 06:00:31;;;;;;;28.38;17.10;;;3.90;99.90;;;;;;5058053;28;20512;-67
2020/12/02 06:02:58;;;;;;;29.35;17.02;;;3.90;99.90;;;;;;5057763;28;20033;-70
2020/12/02 06:05:27;;;;;;;25.85;16.52;;;3.90;99.90;;;;;;5057585;28;20461;-70
2020/12/02 06:07:57;;;;;;;27.02;15.45;;;3.90;99.90;;;;;;5057553;28;20413;-67
2020/12/02 06:10:41;;;;;;;27.65;16.98;;;4.00;99.90;;;;;;5060564;28;20025;-70
2020/12/02 06:13:11;;;;;;;26.52;16.13;;;4.00;99.90;;;;;;5059116;28;20334;-66
2020/12/02 06:15:38;;;;;;;27.08;15.95;;;3.90;99.90;;;;;;5063080;28;20021;-70
2020/12/02 06:18:26;;;;;;;25.90;14.98;;;4.00;99.90;;;;;;5055368;28;20112;-70
2020/12/02 06:20:52;;;;;;;27.20;16.00;;;3.90;99.90;;;;;;5058486;28;20025;-68
2020/12/02 06:23:17;;;;;;;26.70;15.45;;;4.00;99.90;;;;;;5057356;28;20033;-69
2020/12/02 06:26:01;;;;;;;26.42;16.15;;;3.90;99.90;;;;;;5059416;28;20029;-67
2020/12/02 06:28:29;;;;;;;28.00;16.95;;;3.90;99.90;;;;;;5062501;28;20024;-67
2020/12/02 06:31:05;;;;;;;29.33;17.27;;;4.00;99.90;;;;;;5057278;28;20426;-71
2020/12/02 06:33:37;;;;;;;27.17;16.27;;;4.00;99.90;;;;;;5061505;28;20107;-72
2020/12/02 06:36:22;;;;;;;27.17;16.27;;;3.90;99.90;;;;;;5061497;28;20028;-71
2020/12/02 06:38:51;;;;;;;23.00;14.18;;;4.00;99.90;;;;;;5058696;28;20182;-68
2020/12/02 06:41:20;;;;;;;;;;;3.90;99.90;;;;;;5058706;28;20021;-67
2020/12/02 06:43:53;;;;;;;27.30;16.17;;;3.90;99.90;;;;;;5061618;28;20293;-68
2020/12/02 06:46:43;;;;;;;27.70;16.40;;;4.00;99.90;;;;;;5059153;28;20092;-71
2020/12/02 06:49:09;;;;;;;;;;;4.00;99.90;;;;;;5063120;28;20037;-66
2020/12/02 06:51:35;;;;;;;22.73;13.90;;;3.90;99.90;;;;;;5059942;28;20252;-71
2020/12/02 06:54:00;;;;;;;22.77;13.55;;;3.90;99.90;;;;;;5059173;28;20485;-69
2020/12/02 06:56:27;;;;;;;24.50;14.75;;;3.90;99.90;;;;;;5060256;28;20071;-68
2020/12/02 06:59:06;;;;;;;25.48;15.75;;;3.90;99.90;;;;;;5060869;28;20053;-69
2020/12/02 07:01:34;;;;;;;25.23;14.05;;;4.00;99.90;;;;;;5057551;28;20064;-69
2020/12/02 07:04:05;;;;;;;23.05;13.55;;;4.00;99.90;;;;;;5057295;28;20028;-72
2020/12/02 07:06:31;;;;;;;23.50;14.40;;;4.10;99.90;;;;;;5057773;28;20032;-68
2020/12/02 07:09:11;;;;;;;24.95;14.70;;;4.10;99.90;;;;;;5057860;28;20110;-67
2020/12/02 07:11:56;;;;;;;24.65;14.63;;;4.10;99.90;;;;;;5060266;28;20040;-68
2020/12/02 07:14:32;;;;;;;25.63;14.32;;;4.10;99.90;;;;;;5062687;28;20029;-68
2020/12/02 07:17:05;;;;;;;25.65;15.05;;;4.10;99.90;;;;;;5058227;28;20029;-68
2020/12/02 07:19:33;;;;;;;23.35;14.52;;;4.10;99.90;;;;;;5056577;28;20028;-67
2020/12/02 07:22:13;;;;;;;24.10;14.45;;;4.10;99.90;;;;;;5056960;28;20110;-67
2020/12/02 07:24:50;;;;;;;26.40;15.68;;;4.10;99.90;;;;;;5059106;28;20017;-68
2020/12/02 07:27:19;;;;;;;26.95;15.07;;;4.10;99.90;;;;;;5059320;28;20021;-67
2020/12/02 07:29:45;;;;;;;27.65;15.82;;;4.10;99.90;;;;;;5060574;28;20079;-72
2020/12/02 07:32:15;;;;;;;25.42;14.82;;;4.10;99.90;;;;;;5059185;28;20040;-68
2020/12/02 07:34:41;;;;;;;27.52;15.90;;;4.10;99.90;;;;;;5056577;28;20033;-72
2020/12/02 07:37:12;;;;;;;28.17;17.48;;;4.10;99.90;;;;;;5056574;28;20045;-69
2020/12/02 07:40:22;;;;;;;26.83;16.17;;;4.10;99.90;;;;;;5060012;28;20461;-71
2020/12/02 07:42:48;;;;;;;25.67;15.38;;;4.10;99.90;;;;;;5057109;28;20040;-67
2020/12/02 07:45:14;;;;;;;26.15;16.33;;;4.00;99.90;;;;;;5058580;28;20021;-72
2020/12/02 07:47:51;;;;;;;23.65;14.07;;;4.00;99.90;;;;;;5057441;28;20039;-68
2020/12/02 07:50:30;;;;;;;25.13;15.38;;;4.00;99.90;;;;;;5056226;28;20048;-67
2020/12/02 07:53:05;;;;;;;21.65;12.32;;;4.10;99.90;;;;;;5057605;28;20048;-68
2020/12/02 07:55:38;;;;;;;19.60;11.18;;;4.10;99.90;;;;;;5058624;28;20029;-71
2020/12/02 07:58:05;;;;;;;18.15;11.07;;;4.00;99.90;;;;;;5056501;28;20025;-72
2020/12/02 08:00:41;;;;;;;18.25;10.43;;;3.90;99.90;;;;;;5058367;28;20051;-71
2020/12/02 08:03:33;;;;;;;18.80;11.15;;;4.00;99.90;;;;;;5059473;28;20362;-71
2020/12/02 08:06:02;;;;;;;16.92;10.45;;;4.00;99.90;;;;;;5055685;28;20060;-69
2020/12/02 08:08:28;;;;;;;18.65;10.75;;;3.90;99.90;;;;;;5055728;28;20035;-68
2020/12/02 08:11:16;;;;;;;19.08;11.73;;;3.90;99.90;;;;;;5055838;28;20021;-67
2020/12/02 08:13:51;;;;;;;17.02;10.45;;;3.90;99.90;;;;;;5055381;28;20029;-68
2020/12/02 08:16:30;;;;;;;16.55;10.38;;;3.90;99.90;;;;;;5057882;28;20029;-71
2020/12/02 08:18:57;;;;;;;19.15;11.18;;;3.90;99.90;;;;;;5059296;28;20056;-68
2020/12/02 08:21:26;;;;;;;18.13;10.38;;;3.90;99.90;;;;;;5057059;28;20048;-69
2020/12/02 08:24:09;;;;;;;17.98;10.80;;;3.80;99.90;;;;;;5055856;28;20047;-70
2020/12/02 08:26:35;;;;;;;17.83;10.82;;;3.90;99.90;;;;;;5056776;28;20028;-72
2020/12/02 08:29:05;;;;;;;19.13;10.73;;;3.80;99.90;;;;;;5058276;28;20033;-70
2020/12/02 08:31:32;;;;;;;17.63;10.75;;;3.80;99.90;;;;;;5056096;28;20025;-67
2020/12/02 08:34:25;;;;;;;19.38;11.38;;;3.80;99.90;;;;;;5060238;28;20048;-67
2020/12/02 08:37:11;;;;;;;18.52;11.32;;;3.80;99.90;;;;;;5059693;28;20037;-71
2020/12/02 08:39:39;;;;;;;18.48;11.65;;;3.70;99.90;;;;;;5054939;28;20116;-69
2020/12/02 08:42:05;;;;;;;20.83;12.73;;;3.70;99.90;;;;;;5056442;28;20021;-72
2020/12/02 08:44:31;;;;;;;19.63;12.52;;;3.70;99.90;;;;;;5054954;28;20017;-67
2020/12/02 08:47:02;;;;;;;20.42;11.82;;;3.70;99.90;;;;;;5056784;28;20028;-72
2020/12/02 08:49:32;;;;;;;18.88;11.73;;;3.70;99.90;;;;;;5056090;28;20508;-71
2020/12/02 08:51:58;;;;;;;20.38;12.35;;;3.70;99.90;;;;;;5056529;28;20048;-68
2020/12/02 08:54:25;;;;;;;19.10;11.35;;;3.70;99.90;;;;;;5057380;28;20104;-67
2020/12/02 08:57:00;;;;;;;18.63;11.63;;;3.70;99.90;;;;;;5056360;28;20135;-68
2020/12/02 08:59:28;;;;;;;19.98;11.35;;;3.70;99.90;;;;;;5056726;28;20029;-71
2020/12/02 09:02:01;;;;;;;18.77;11.77;;;3.70;99.90;;;;;;5056188;28;20033;-69
2020/12/02 09:04:27;;;;;;;19.33;11.52;;;3.60;99.90;;;;;;5057347;28;20025;-68
2020/12/02 09:06:53;;;;;;;18.40;11.38;;;3.60;99.90;;;;;;5055556;28;20116;-68
2020/12/02 09:09:19;;;;;;;18.33;11.10;;;3.60;99.90;;;;;;5061084;28;20037;-73
2020/12/02 09:11:44;;;;;;;17.85;10.60;;;3.60;99.90;;;;;;5057685;28;20117;-68
2020/12/02 09:14:10;;;;;;;18.40;11.07;;;3.50;99.90;;;;;;5056701;28;20468;-71
2020/12/02 09:16:38;;;;;;;17.67;10.88;;;3.50;99.90;;;;;;5057460;28;20033;-73
2020/12/02 09:19:08;;;;;;;18.50;11.18;;;3.50;99.90;;;;;;5059080;28;20021;-73
2020/12/02 09:21:34;;;;;;;18.10;10.98;;;3.50;99.90;;;;;;5057617;28;20163;-71
2020/12/02 09:24:00;;;;;;;16.90;11.32;;;3.50;99.90;;;;;;5058393;28;20052;-67
2020/12/02 09:26:36;;;;;;;17.58;10.70;;;3.50;99.90;;;;;;5059122;28;20112;-71
2020/12/02 09:29:03;;;;;;;17.10;10.52;;;3.50;99.90;;;;;;5058183;28;20028;-72
2020/12/02 09:31:31;;;;;;;14.45;8.77;;;3.60;99.90;;;;;;5054494;28;20029;-67
2020/12/02 09:33:58;;;;;;;18.05;10.10;;;3.60;99.90;;;;;;5056720;28;20107;-69
2020/12/02 09:36:25;;;;;;;14.98;9.32;;;3.60;99.90;;;;;;5058138;28;20047;-68
2020/12/02 09:38:52;;;;;;;15.30;9.57;;;3.60;99.90;;;;;;5055711;28;20021;-68
2020/12/02 09:41:23;;;;;;;15.68;10.05;;;3.60;99.90;;;;;;5055914;28;20017;-70
2020/12/02 09:44:09;;;;;;;13.95;9.40;;;3.50;99.90;;;;;;5059615;28;20029;-69
2020/12/02 09:46:36;;;;;;;15.55;10.25;;;3.50;99.90;;;;;;5056002;28;20460;-69
2020/12/02 09:49:03;;;;;;;14.45;8.98;;;3.50;99.90;;;;;;5057972;28;20025;-72
2020/12/02 09:51:31;;;;;;;15.90;9.85;;;3.50;99.90;;;;;;5056526;28;20477;-71
2020/12/02 09:53:58;;;;;;;16.02;10.43;;;3.50;99.90;;;;;;5060850;28;20047;-71
2020/12/02 09:56:27;;;;;;;16.98;10.70;;;3.50;99.90;;;;;;5055439;28;20104;-69
2020/12/02 09:58:56;;;;;;;15.07;10.02;;;3.50;99.90;;;;;;5060803;28;20021;-69
2020/12/02 10:01:41;;;;;;;16.80;8.65;;;3.50;99.90;;;;;;5061841;28;20029;-71
2020/12/02 10:04:44;;;;;;;13.95;8.95;;;3.50;99.90;;;;;;5061001;28;20388;-68
2020/12/02 10:07:18;;;;;;;15.10;8.73;;;3.50;99.90;;;;;;5063343;28;20045;-71
2020/12/02 10:09:55;;;;;;;13.55;8.75;;;3.50;99.90;;;;;;5058793;28;20048;-68
2020/12/02 10:12:47;;;;;;;14.10;8.38;;;3.50;99.90;;;;;;5057656;28;20432;-70
2020/12/02 10:15:44;;;;;;;12.75;8.00;;;3.60;99.90;;;;;;5060480;28;20098;-71
2020/12/02 10:18:19;;;;;;;16.13;9.25;;;3.60;99.90;;;;;;5058719;28;20124;-72
2020/12/02 10:20:47;;;;;;;15.85;9.70;;;3.50;99.90;;;;;;5060832;28;20036;-68
2020/12/02 10:23:29;;;;;;;15.50;9.63;;;3.60;99.90;;;;;;5063494;28;20021;-73
2020/12/02 10:26:42;;;;;;;17.17;10.55;;;3.60;99.90;;;;;;5058502;28;20056;-71
2020/12/02 10:29:52;;;;;;;13.73;8.80;;;3.60;99.90;;;;;;5056970;28;20122;-67
2020/12/02 10:32:36;;;;;;;15.05;9.27;;;3.60;99.90;;;;;;5058920;28;20065;-72
2020/12/02 10:35:03;;;;;;;13.48;7.90;;;3.60;99.90;;;;;;5057007;28;20028;-72
2020/12/02 10:37:34;;;;;;;12.93;7.75;;;3.60;99.90;;;;;;5061597;28;20428;-71
2020/12/02 10:40:00;;;;;;;11.00;6.93;;;3.60;99.90;;;;;;5061756;28;20025;-68
2020/12/02 10:42:33;;;;;;;12.68;7.07;;;3.60;99.90;;;;;;5056647;28;20032;-72
2020/12/02 10:45:02;;;;;;;11.30;6.78;;;3.60;99.90;;;;;;5058435;28;20028;-69
2020/12/02 10:48:01;;;;;;;11.82;6.95;;;3.70;99.90;;;;;;5058337;28;20465;-70
2020/12/02 10:50:29;;;;;;;;;;;3.70;99.90;;;;;;5058661;28;20025;-72
2020/12/02 10:52:57;;;;;;;10.82;6.72;;;3.70;99.90;;;;;;5059881;28;19905;-69
2020/12/02 10:55:34;;;;;;;12.25;7.05;;;3.70;99.90;;;;;;5063454;28;20033;-69
2020/12/02 10:58:19;;;;;;;12.48;7.22;;;3.80;99.90;;;;;;5056592;28;20032;-74
2020/12/02 11:00:48;;;;;;;12.32;7.35;;;3.80;99.90;;;;;;5060922;28;20072;-67
2020/12/02 11:03:22;;;;;;;11.65;6.72;;;3.90;99.90;;;;;;5058396;28;20025;-72
2020/12/02 11:05:55;;;;;;;12.13;7.18;;;3.90;99.90;;;;;;5059038;28;20025;-69
2020/12/02 11:08:49;;;;;;;9.23;6.07;;;4.10;99.90;;;;;;5058449;28;20021;-69
2020/12/02 11:11:36;;;;;;;9.88;6.22;;;4.20;99.90;;;;;;5064094;28;20037;-72
2020/12/02 11:14:24;;;;;;;8.35;5.00;;;4.20;99.90;;;;;;5036566;28;20067;-66
2020/12/02 11:17:10;;;;;;;10.05;6.25;;;4.30;99.90;;;;;;5039494;28;20140;-68
2020/12/02 11:19:58;;;;;;;9.35;6.00;;;4.30;99.90;;;;;;5040194;28;20115;-71
2020/12/02 11:22:44;;;;;;;8.40;5.28;;;4.30;99.90;;;;;;5047909;28;20057;-69
2020/12/02 11:25:47;;;;;;;8.52;5.43;;;4.20;99.90;;;;;;5058209;28;20021;-68
2020/12/02 11:28:15;;;;;;;9.32;5.00;;;4.10;99.90;;;;;;5065231;28;20029;-68
2020/12/02 11:30:42;;;;;;;9.40;5.65;;;4.10;99.90;;;;;;5057604;28;20094;-70
2020/12/02 11:33:28;;;;;;;9.63;5.57;;;4.00;99.90;;;;;;5061457;28;20052;-69
2020/12/02 11:36:11;;;;;;;9.15;5.90;;;4.00;99.90;;;;;;5060531;28;20096;-71
2020/12/02 11:38:49;;;;;;;10.68;5.53;;;4.00;99.90;;;;;;5057319;28;20061;-68
2020/12/02 11:41:52;;;;;;;10.60;5.68;;;3.90;99.90;;;;;;5056488;28;20096;-71
2020/12/02 11:44:53;;;;;;;10.32;5.78;;;3.90;99.90;;;;;;5035797;28;20026;-69
2020/12/02 11:47:43;;;;;;;7.78;5.15;;;3.90;99.90;;;;;;5037687;28;20509;-67
2020/12/02 11:50:31;;;;;;;7.57;4.55;;;4.00;99.90;;;;;;5038867;28;20044;-67
2020/12/02 11:53:25;;;;;;;7.55;4.75;;;3.90;99.90;;;;;;5049689;28;20448;-71
2020/12/02 11:55:51;;;;;;;7.65;4.53;;;3.90;99.90;;;;;;5059369;28;20029;-71
2020/12/02 11:58:17;;;;;;;7.05;4.60;;;3.90;99.90;;;;;;5057681;28;20043;-67
2020/12/02 12:00:43;;;;;;;8.77;4.70;;;3.80;99.90;;;;;;5058901;28;20486;-68
2020/12/02 12:03:45;;;;;;;7.65;4.50;;;3.80;99.90;;;;;;5062062;28;20043;-71
2020/12/02 12:06:22;;;;;;;7.68;4.97;;;3.90;99.90;;;;;;5055416;28;20032;-70
2020/12/02 12:08:58;;;;;;;7.70;4.82;;;3.90;99.90;;;;;;5036698;28;20067;-72
2020/12/02 12:11:36;;;;;;;8.07;4.95;;;3.90;99.90;;;;;;5056771;28;20075;-68
2020/12/02 12:14:29;;;;;;;8.00;4.90;;;3.90;99.90;;;;;;5056613;28;20056;-67
2020/12/02 12:17:19;;;;;;;7.63;4.50;;;3.90;99.90;;;;;;5054838;28;20029;-70
2020/12/02 12:19:54;;;;;;;6.90;4.82;;;3.90;99.90;;;;;;5061822;28;20078;-64
2020/12/02 12:22:45;;;;;;;6.90;4.72;;;3.90;99.90;;;;;;5057204;28;20086;-67
2020/12/02 12:25:19;;;;;;;5.90;3.67;;;3.90;99.90;;;;;;5059767;28;20109;-66
2020/12/02 12:27:47;;;;;;;6.10;3.80;;;3.90;99.90;;;;;;5059387;28;20049;-72
2020/12/02 12:30:14;;;;;;;6.30;4.30;;;3.80;99.90;;;;;;5056289;28;20544;-70
2020/12/02 12:32:55;;;;;;;6.68;4.00;;;3.80;99.90;;;;;;5059389;28;20060;-71
2020/12/02 12:35:26;;;;;;;6.85;4.30;;;3.80;99.90;;;;;;5058601;28;20032;-67
2020/12/02 12:38:06;;;;;;;6.22;4.38;;;3.80;99.90;;;;;;5063564;28;20033;-67
2020/12/02 12:40:42;;;;;;;6.18;4.40;;;3.80;99.90;;;;;;5060235;28;20021;-72
2020/12/02 12:43:16;;;;;;;7.25;4.38;;;3.80;99.90;;;;;;5056750;28;20053;-70
2020/12/02 12:45:45;;;;;;;6.72;4.47;;;3.80;99.90;;;;;;5057833;28;20520;-71
2020/12/02 12:48:19;;;;;;;7.40;4.43;;;3.80;99.90;;;;;;5057657;28;20021;-66
2020/12/02 12:50:48;;;;;;;6.57;4.43;;;3.80;99.90;;;;;;5058593;28;20024;-72
2020/12/02 12:53:15;;;;;;;6.37;4.37;;;3.80;99.90;;;;;;5056735;28;20476;-68
2020/12/02 12:55:41;;;;;;;5.97;4.03;;;3.80;99.90;;;;;;5061571;28;20028;-71
2020/12/02 12:58:17;;;;;;;6.30;4.50;;;3.70;99.90;;;;;;5061886;28;20465;-67
2020/12/02 13:00:49;;;;;;;7.22;4.82;;;3.80;99.90;;;;;;5058111;28;20099;-67
2020/12/02 13:03:24;;;;;;;7.35;4.78;;;3.70;99.90;;;;;;5056098;28;20040;-68
2020/12/02 13:06:29;;;;;;;7.60;4.65;;;3.80;99.90;;;;;;5055718;28;20024;-70
2020/12/02 13:09:21;;;;;;;7.47;5.60;;;3.90;99.90;;;;;;5056661;28;20033;-68
2020/12/02 13:11:56;;;;;;;9.18;6.10;;;3.90;99.90;;;;;;5056520;28;20032;-68
2020/12/02 13:15:02;;;;;;;8.57;5.93;;;4.00;99.90;;;;;;5059210;28;20425;-66
2020/12/02 13:17:57;;;;;;;8.35;6.00;;;4.10;99.90;;;;;;5057992;28;20041;-71